Time;durP1;ratioP1;P1;durP2;ratioP2;P2;SDS_P1;SDS_P2;PMS_P1;PMS_P2;Temp;Humidity;BMP_temperature;BMP_pressure;BME280_temperature;BME280_humidity;BME280_pressure;Samples;Min_cycle;Max_cycle;Signal;HPM_P1;HPM_P2
2022/08/10 00:00:55;;;;;;;13.17;8.60;;;;;;;;;;5046926;28;20225;-74
2022/08/10 00:03:22;;;;;;;11.30;7.73;;;;;;;;;;5046831;28;20187;-74
2022/08/10 00:05:48;;;;;;;10.87;7.83;;;;;;;;;;5044270;28;20214;-74
2022/08/10 00:08:19;;;;;;;12.77;8.23;;;;;;;;;;5047551;28;20218;-75
2022/08/10 00:10:50;;;;;;;11.93;7.97;;;;;;;;;;5048446;28;20186;-74
2022/08/10 00:13:17;;;;;;;15.57;9.80;;;;;;;;;;5047284;28;20185;-74
2022/08/10 00:15:44;;;;;;;11.70;8.43;;;;;;;;;;5047514;28;20218;-74
2022/08/10 00:18:20;;;;;;;11.77;8.03;;;;;;;;;;5048456;28;20242;-74
2022/08/10 00:21:05;;;;;;;12.97;8.33;;;;;;;;;;5049131;28;20181;-74
2022/08/10 00:23:32;;;;;;;11.07;7.70;;;;;;;;;;5061290;28;20225;-74
2022/08/10 00:26:00;;;;;;;10.77;7.33;;;;;;;;;;5040019;28;20198;-74
2022/08/10 00:28:27;;;;;;;9.87;7.53;;;;;;;;;;5046941;28;20286;-74
2022/08/10 00:30:54;;;;;;;10.00;7.40;;;;;;;;;;5042992;28;20278;-74
2022/08/10 00:33:21;;;;;;;14.23;7.03;;;;;;;;;;5045458;28;20344;-74
2022/08/10 00:35:48;;;;;;;9.83;6.73;;;;;;;;;;5030163;28;20729;-74
2022/08/10 00:38:14;;;;;;;10.10;6.80;;;;;;;;;;5047698;28;20293;-74
2022/08/10 00:40:41;;;;;;;11.87;7.27;;;;;;;;;;5048153;28;20190;-75
2022/08/10 00:43:25;;;;;;;7.87;6.50;;;;;;;;;;5046908;28;20284;-74
2022/08/10 00:45:52;;;;;;;9.83;6.43;;;;;;;;;;5044283;28;20183;-75
2022/08/10 00:48:25;;;;;;;10.03;6.83;;;;;;;;;;5047548;28;20249;-74
2022/08/10 00:50:53;;;;;;;10.47;7.03;;;;;;;;;;5048340;28;20558;-75
2022/08/10 00:53:37;;;;;;;9.30;6.60;;;;;;;;;;5045676;28;20182;-74
2022/08/10 00:56:04;;;;;;;11.47;8.00;;;;;;;;;;5046638;28;20297;-74
2022/08/10 00:58:51;;;;;;;10.13;7.07;;;;;;;;;;5049366;28;20210;-75
2022/08/10 01:01:18;;;;;;;9.67;6.80;;;;;;;;;;5046507;28;20292;-74
2022/08/10 01:04:03;;;;;;;7.23;6.00;;;;;;;;;;5034005;28;20256;-74
2022/08/10 01:07:08;;;;;;;8.83;6.63;;;;;;;;;;5048406;28;20550;-74
2022/08/10 01:09:58;;;;;;;7.93;5.57;;;;;;;;;;5038947;28;20225;-74
2022/08/10 01:12:31;;;;;;;8.77;5.57;;;;;;;;;;5033923;28;20729;-75
2022/08/10 01:15:18;;;;;;;7.90;5.63;;;;;;;;;;5049705;28;20643;-74
2022/08/10 01:17:52;;;;;;;7.30;5.23;;;;;;;;;;5050426;28;20557;-75
2022/08/10 01:20:35;;;;;;;8.10;5.17;;;;;;;;;;5048837;28;20190;-74
2022/08/10 01:23:08;;;;;;;8.13;5.57;;;;;;;;;;5051880;28;20629;-74
2022/08/10 01:25:55;;;;;;;9.97;6.50;;;;;;;;;;5048751;28;20285;-75
2022/08/10 01:28:53;;;;;;;10.90;7.73;;;;;;;;;;5041510;28;20194;-74
2022/08/10 01:31:22;;;;;;;9.23;7.37;;;;;;;;;;5048090;28;20201;-74
2022/08/10 01:33:50;;;;;;;11.83;8.00;;;;;;;;;;5048512;28;20591;-74
2022/08/10 01:36:54;;;;;;;10.47;7.33;;;;;;;;;;5032099;28;20299;-74
2022/08/10 01:39:22;;;;;;;7.73;6.23;;;;;;;;;;5050228;28;20207;-74
2022/08/10 01:41:50;;;;;;;9.47;6.80;;;;;;;;;;5042018;28;20323;-74
2022/08/10 01:44:29;;;;;;;9.13;6.37;;;;;;;;;;5051788;28;20213;-74
2022/08/10 01:50:12;;;;;;;12.10;6.47;;;;;;;;;;5035549;28;20322;-74
2022/08/10 01:52:41;;;;;;;10.07;6.70;;;;;;;;;;5046720;28;20190;-74
2022/08/10 01:55:09;;;;;;;10.37;7.10;;;;;;;;;;5047860;28;20190;-74
2022/08/10 01:57:35;;;;;;;8.73;6.73;;;;;;;;;;5049520;28;20250;-75
2022/08/10 02:00:03;;;;;;;10.73;6.30;;;;;;;;;;5029796;28;20207;-74
2022/08/10 02:02:32;;;;;;;9.07;6.27;;;;;;;;;;5049786;28;20260;-74
2022/08/10 02:04:59;;;;;;;10.53;7.67;;;;;;;;;;5043759;28;20230;-75
2022/08/10 02:07:27;;;;;;;9.93;6.57;;;;;;;;;;5040219;28;20199;-74
2022/08/10 02:09:54;;;;;;;9.23;6.67;;;;;;;;;;5043681;28;20183;-74
2022/08/10 02:12:22;;;;;;;11.63;7.57;;;;;;;;;;5048884;28;20555;-75
2022/08/10 02:14:58;;;;;;;11.00;7.73;;;;;;;;;;5047958;28;20199;-74
2022/08/10 02:17:34;;;;;;;10.60;7.37;;;;;;;;;;5049000;28;20405;-75
2022/08/10 02:20:22;;;;;;;8.60;6.60;;;;;;;;;;5050366;28;20213;-75
2022/08/10 02:23:24;;;;;;;10.17;6.70;;;;;;;;;;5049439;28;20171;-75
2022/08/10 02:25:51;;;;;;;11.33;7.17;;;;;;;;;;5043370;28;20313;-74
2022/08/10 02:28:19;;;;;;;9.57;7.70;;;;;;;;;;5049876;28;20194;-74
2022/08/10 02:30:58;;;;;;;12.43;7.90;;;;;;;;;;5049933;28;20643;-74
2022/08/10 02:33:25;;;;;;;10.43;7.73;;;;;;;;;;5048758;28;20191;-74
2022/08/10 02:35:52;;;;;;;12.10;7.27;;;;;;;;;;5049489;28;20292;-75
2022/08/10 02:38:28;;;;;;;9.93;6.40;;;;;;;;;;5033592;28;20218;-74
2022/08/10 02:41:30;;;;;;;10.23;6.90;;;;;;;;;;5045598;28;20198;-74
2022/08/10 02:44:27;;;;;;;9.00;7.30;;;;;;;;;;5049271;28;20204;-75
2022/08/10 02:47:33;;;;;;;12.13;8.30;;;;;;;;;;5037570;28;20193;-74
2022/08/10 02:50:20;;;;;;;9.00;6.23;;;;;;;;;;5049679;28;20198;-74
2022/08/10 02:52:49;;;;;;;10.70;6.67;;;;;;;;;;5060409;28;20533;-74
2022/08/10 02:55:22;;;;;;;12.30;6.80;;;;;;;;;;5049683;28;20195;-74
2022/08/10 02:57:53;;;;;;;9.00;7.07;;;;;;;;;;5049557;28;20265;-75
2022/08/10 03:00:44;;;;;;;11.70;7.43;;;;;;;;;;5044768;28;20285;-74
2022/08/10 03:03:29;;;;;;;8.63;6.57;;;;;;;;;;5061102;28;20726;-74
2022/08/10 03:05:58;;;;;;;7.60;6.10;;;;;;;;;;5048143;28;20191;-74
2022/08/10 03:08:42;;;;;;;9.33;6.80;;;;;;;;;;5049193;28;20186;-74
2022/08/10 03:11:13;;;;;;;8.70;6.80;;;;;;;;;;5032270;28;20190;-74
2022/08/10 03:13:57;;;;;;;7.87;6.13;;;;;;;;;;5041210;28;20598;-74
2022/08/10 03:16:25;;;;;;;9.53;6.73;;;;;;;;;;5048304;28;20214;-74
2022/08/10 03:18:59;;;;;;;9.57;7.00;;;;;;;;;;5048431;28;20222;-74
2022/08/10 03:21:26;;;;;;;10.80;7.37;;;;;;;;;;5047730;28;20558;-73
2022/08/10 03:24:10;;;;;;;11.83;7.93;;;;;;;;;;5034743;28;20186;-74
2022/08/10 03:26:57;;;;;;;11.53;7.50;;;;;;;;;;5048635;28;20955;-75
2022/08/10 03:29:24;;;;;;;9.97;6.83;;;;;;;;;;5028850;28;20783;-74
2022/08/10 03:31:50;;;;;;;10.70;7.23;;;;;;;;;;5047690;28;20698;-74
2022/08/10 03:34:18;;;;;;;10.17;6.87;;;;;;;;;;5043133;28;20219;-74
2022/08/10 03:36:58;;;;;;;11.17;6.40;;;;;;;;;;5029990;28;20242;-75
2022/08/10 03:39:25;;;;;;;9.47;6.93;;;;;;;;;;5045077;28;20290;-74
2022/08/10 03:41:54;;;;;;;9.97;7.03;;;;;;;;;;5042335;28;20558;-74
2022/08/10 03:44:23;;;;;;;9.13;6.70;;;;;;;;;;5049975;28;20183;-75
2022/08/10 03:47:08;;;;;;;11.77;8.17;;;;;;;;;;5037787;28;20175;-74
2022/08/10 03:49:42;;;;;;;12.73;7.33;;;;;;;;;;5044421;28;20966;-74
2022/08/10 03:52:08;;;;;;;10.37;7.10;;;;;;;;;;5032546;28;20286;-74
2022/08/10 03:54:35;;;;;;;10.67;6.90;;;;;;;;;;5047444;28;20223;-74
2022/08/10 03:57:02;;;;;;;11.97;7.40;;;;;;;;;;5048136;28;20784;-74
2022/08/10 03:59:30;;;;;;;11.23;8.07;;;;;;;;;;5046876;28;20256;-74
2022/08/10 04:01:57;;;;;;;20.67;8.87;;;;;;;;;;5045703;28;20195;-73
2022/08/10 04:04:43;;;;;;;14.80;7.43;;;;;;;;;;5042545;28;20494;-74
2022/08/10 04:07:10;;;;;;;14.40;7.00;;;;;;;;;;5046718;28;20542;-74
2022/08/10 04:09:38;;;;;;;23.33;8.10;;;;;;;;;;5040331;28;20190;-74
2022/08/10 04:12:20;;;;;;;14.30;8.13;;;;;;;;;;5049212;28;20570;-74
2022/08/10 04:15:04;;;;;;;19.57;8.57;;;;;;;;;;5017040;28;20646;-74
2022/08/10 04:17:31;;;;;;;17.83;7.43;;;;;;;;;;5048071;28;20214;-74
2022/08/10 04:20:19;;;;;;;17.20;8.10;;;;;;;;;;5048373;28;20188;-74
2022/08/10 04:22:47;;;;;;;21.60;8.53;;;;;;;;;;5031215;28;20193;-74
2022/08/10 04:25:13;;;;;;;16.77;9.03;;;;;;;;;;5047793;28;20274;-74
2022/08/10 04:27:40;;;;;;;15.37;8.80;;;;;;;;;;5043873;28;20197;-74
2022/08/10 04:30:07;;;;;;;41.80;10.47;;;;;;;;;;5037122;28;20282;-74
2022/08/10 04:32:34;;;;;;;12.30;8.97;;;;;;;;;;5044401;28;20201;-74
2022/08/10 04:35:01;;;;;;;16.50;8.47;;;;;;;;;;5048434;28;20745;-74
2022/08/10 04:37:28;;;;;;;15.40;8.23;;;;;;;;;;5047343;28;20222;-74
2022/08/10 04:39:55;;;;;;;16.50;10.63;;;;;;;;;;5047692;28;20281;-74
2022/08/10 04:42:22;;;;;;;18.37;9.27;;;;;;;;;;5037958;28;20201;-73
2022/08/10 04:44:49;;;;;;;19.20;10.03;;;;;;;;;;5040338;28;20231;-72
2022/08/10 04:47:16;;;;;;;20.67;10.17;;;;;;;;;;5034113;28;20190;-72
2022/08/10 04:50:03;;;;;;;20.17;11.23;;;;;;;;;;5045101;28;20247;-70
2022/08/10 04:52:31;;;;;;;20.27;10.50;;;;;;;;;;5027946;28;20228;-73
2022/08/10 04:54:59;;;;;;;15.03;9.23;;;;;;;;;;5032667;28;20187;-76
2022/08/10 04:57:27;;;;;;;20.47;10.03;;;;;;;;;;5035840;28;20391;-75
2022/08/10 05:00:13;;;;;;;17.03;9.60;;;;;;;;;;5034483;28;20907;-75
2022/08/10 05:02:45;;;;;;;18.50;9.57;;;;;;;;;;5028952;28;20196;-77
2022/08/10 05:05:12;;;;;;;18.27;10.40;;;;;;;;;;5041431;28;20201;-72
2022/08/10 05:07:39;;;;;;;20.03;9.80;;;;;;;;;;5040759;28;20190;-76
2022/08/10 05:10:22;;;;;;;12.53;9.40;;;;;;;;;;5034715;28;20236;-79
2022/08/10 05:12:49;;;;;;;18.53;10.57;;;;;;;;;;5037614;28;20304;-77
2022/08/10 05:15:34;;;;;;;15.43;11.17;;;;;;;;;;5048053;28;20201;-75
2022/08/10 05:18:03;;;;;;;20.57;11.87;;;;;;;;;;5042092;28;20961;-74
2022/08/10 05:20:47;;;;;;;22.07;10.73;;;;;;;;;;5034431;28;20179;-75
2022/08/10 05:23:16;;;;;;;18.33;10.03;;;;;;;;;;5020914;28;20209;-80
2022/08/10 05:26:03;;;;;;;20.17;11.37;;;;;;;;;;5017239;28;20183;-84
2022/08/10 05:28:31;;;;;;;18.67;9.23;;;;;;;;;;5046228;28;20797;-79
2022/08/10 05:31:15;;;;;;;12.33;8.47;;;;;;;;;;5039628;28;20662;-76
2022/08/10 05:33:49;;;;;;;13.83;7.43;;;;;;;;;;5044765;28;20242;-75
2022/08/10 05:36:16;;;;;;;13.80;7.10;;;;;;;;;;5033930;28;20223;-76
2022/08/10 05:38:44;;;;;;;12.90;7.07;;;;;;;;;;5040392;28;20204;-75
2022/08/10 05:41:11;;;;;;;17.30;7.60;;;;;;;;;;5043408;28;20209;-75
2022/08/10 05:43:38;;;;;;;12.37;6.30;;;;;;;;;;5042772;28;20201;-75
2022/08/10 05:46:04;;;;;;;15.73;11.10;;;;;;;;;;5023297;28;20346;-75
2022/08/10 05:48:47;;;;;;;9.50;5.90;;;;;;;;;;5047901;28;20206;-75
2022/08/10 05:51:51;;;;;;;17.13;11.07;;;;;;;;;;5045839;28;20186;-75
2022/08/10 05:54:18;;;;;;;9.03;6.13;;;;;;;;;;5027391;28;20252;-73
2022/08/10 05:56:46;;;;;;;10.00;4.90;;;;;;;;;;5035886;28;20218;-75
2022/08/10 05:59:20;;;;;;;7.03;4.57;;;;;;;;;;5039175;28;20244;-73
2022/08/10 06:02:07;;;;;;;5.37;4.13;;;;;;;;;;5048923;28;20197;-77
2022/08/10 06:04:54;;;;;;;5.40;4.03;;;;;;;;;;5040890;28;20620;-78
2022/08/10 06:07:48;;;;;;;6.47;3.53;;;;;;;;;;5048726;28;20186;-73
2022/08/10 06:10:15;;;;;;;9.60;4.13;;;;;;;;;;5049494;28;20197;-74
2022/08/10 06:15:57;;;;;;;4.50;3.23;;;;;;;;;;5046260;28;20187;-76
2022/08/10 06:18:24;;;;;;;5.03;3.27;;;;;;;;;;5048294;28;20207;-73
2022/08/10 06:20:51;;;;;;;4.60;3.00;;;;;;;;;;5049515;28;20191;-74
2022/08/10 06:23:18;;;;;;;5.30;3.20;;;;;;;;;;5046653;28;20264;-73
2022/08/10 06:25:45;;;;;;;4.10;3.07;;;;;;;;;;5032446;28;20191;-73
2022/08/10 06:28:32;;;;;;;2.77;2.17;;;;;;;;;;5049893;28;20267;-75
2022/08/10 06:31:00;;;;;;;4.30;2.30;;;;;;;;;;5050480;28;20249;-78
2022/08/10 06:33:29;;;;;;;5.57;2.50;;;;;;;;;;5045966;28;20207;-84
2022/08/10 06:35:57;;;;;;;4.63;2.77;;;;;;;;;;5050846;28;20195;-79
2022/08/10 06:38:23;;;;;;;3.07;2.77;;;;;;;;;;5051278;28;20218;-83
2022/08/10 06:40:52;;;;;;;4.17;2.80;;;;;;;;;;5014578;28;20681;-80
2022/08/10 06:43:20;;;;;;;3.43;2.77;;;;;;;;;;5046805;28;20199;-79
2022/08/10 06:46:06;;;;;;;2.67;2.20;;;;;;;;;;5042310;28;20254;-76
2022/08/10 06:48:40;;;;;;;4.23;2.73;;;;;;;;;;5066754;28;20198;-77
2022/08/10 06:51:27;;;;;;;3.70;2.27;;;;;;;;;;5055750;28;20193;-77
2022/08/10 06:53:54;;;;;;;2.80;2.13;;;;;;;;;;5045637;28;20194;-78
2022/08/10 06:56:22;;;;;;;2.60;2.30;;;;;;;;;;5050541;28;20618;-78
2022/08/10 06:59:14;;;;;;;3.57;2.60;;;;;;;;;;5049102;28;20264;-78
2022/08/10 07:02:03;;;;;;;4.27;2.57;;;;;;;;;;5047605;28;20190;-76
2022/08/10 07:04:34;;;;;;;2.23;1.70;;;;;;;;;;5044879;28;20230;-76
2022/08/10 07:07:21;;;;;;;2.77;2.10;;;;;;;;;;5031548;28;20864;-71
2022/08/10 07:09:48;;;;;;;3.07;1.90;;;;;;;;;;5051718;28;20218;-76
2022/08/10 07:12:19;;;;;;;3.13;1.93;;;;;;;;;;5046674;28;20240;-79
2022/08/10 07:14:46;;;;;;;2.30;1.83;;;;;;;;;;5043279;28;20848;-75
2022/08/10 07:17:15;;;;;;;4.67;2.20;;;;;;;;;;5043538;28;20284;-77
2022/08/10 07:19:44;;;;;;;2.27;1.93;;;;;;;;;;5023028;28;20890;-79
2022/08/10 07:22:17;;;;;;;3.33;1.90;;;;;;;;;;5014055;28;20240;-73
2022/08/10 07:25:04;;;;;;;2.20;1.73;;;;;;;;;;5034604;28;20244;-73
2022/08/10 07:27:32;;;;;;;3.03;1.63;;;;;;;;;;5050327;28;20183;-73
2022/08/10 07:30:19;;;;;;;2.20;2.00;;;;;;;;;;5048792;28;20562;-73
2022/08/10 07:32:49;;;;;;;2.20;2.00;;;;;;;;;;5048295;28;20199;-74
2022/08/10 07:35:17;;;;;;;2.53;1.90;;;;;;;;;;5040652;28;20227;-74
2022/08/10 07:37:48;;;;;;;3.30;1.80;;;;;;;;;;5050087;28;20210;-74
2022/08/10 07:40:32;;;;;;;2.60;2.20;;;;;;;;;;5049007;28;20178;-74
2022/08/10 07:42:59;;;;;;;2.60;2.10;;;;;;;;;;5046621;28;20688;-74
2022/08/10 07:45:27;;;;;;;2.67;2.47;;;;;;;;;;5041116;28;20287;-74
2022/08/10 07:47:56;;;;;;;3.80;2.00;;;;;;;;;;5022361;28;20198;-74
2022/08/10 07:50:23;;;;;;;3.27;2.10;;;;;;;;;;5030461;28;20194;-74
2022/08/10 07:52:52;;;;;;;3.07;2.30;;;;;;;;;;5047213;28;20654;-74
2022/08/10 07:55:19;;;;;;;3.20;2.27;;;;;;;;;;5046364;28;20224;-74
2022/08/10 07:58:06;;;;;;;2.43;2.23;;;;;;;;;;5032007;28;20223;-71
2022/08/10 08:00:32;;;;;;;3.10;2.10;;;;;;;;;;5065200;28;20203;-76
2022/08/10 08:03:00;;;;;;;2.77;2.00;;;;;;;;;;5054888;28;20233;-74
2022/08/10 08:05:27;;;;;;;3.03;2.10;;;;;;;;;;5048869;28;20796;-73
2022/08/10 08:08:14;;;;;;;4.57;2.23;;;;;;;;;;5026436;28;20225;-74
2022/08/10 08:10:42;;;;;;;3.37;2.40;;;;;;;;;;5043143;28;20199;-74
2022/08/10 08:13:09;;;;;;;2.63;2.20;;;;;;;;;;5034865;28;20234;-74
2022/08/10 08:15:37;;;;;;;3.53;2.10;;;;;;;;;;5032391;28;20211;-74
2022/08/10 08:18:24;;;;;;;2.80;2.20;;;;;;;;;;5036378;28;20257;-73
2022/08/10 08:20:51;;;;;;;4.20;2.83;;;;;;;;;;5018224;28;20234;-73
2022/08/10 08:23:19;;;;;;;3.53;2.13;;;;;;;;;;5032603;28;21002;-76
2022/08/10 08:26:06;;;;;;;2.70;2.20;;;;;;;;;;5038900;28;20204;-62
2022/08/10 08:28:34;;;;;;;4.53;2.40;;;;;;;;;;5048969;28;20266;-62
2022/08/10 08:31:01;;;;;;;2.37;2.17;;;;;;;;;;5044808;28;20191;-63
2022/08/10 08:33:28;;;;;;;3.50;2.40;;;;;;;;;;5044364;28;20839;-63
2022/08/10 08:36:08;;;;;;;1.80;1.70;;;;;;;;;;5044387;28;20527;-62
2022/08/10 08:38:35;;;;;;;2.37;1.20;;;;;;;;;;5047475;28;20562;-62
2022/08/10 08:41:12;;;;;;;1.77;1.43;;;;;;;;;;5047189;28;20278;-62
2022/08/10 08:43:48;;;;;;;2.00;1.50;;;;;;;;;;5033801;28;20196;-62
2022/08/10 08:46:33;;;;;;;1.77;1.20;;;;;;;;;;5042468;28;21016;-63
2022/08/10 08:49:19;;;;;;;1.50;1.40;;;;;;;;;;5039083;28;20671;-62
2022/08/10 08:52:26;;;;;;;2.97;1.80;;;;;;;;;;5048247;28;20575;-62
2022/08/10 08:55:11;;;;;;;2.77;1.70;;;;;;;;;;5048188;28;20252;-63
2022/08/10 08:58:00;;;;;;;2.50;1.10;;;;;;;;;;5039382;28;20233;-63
2022/08/10 09:01:03;;;;;;;2.23;1.40;;;;;;;;;;5027311;28;20186;-63
2022/08/10 09:03:48;;;;;;;2.33;1.50;;;;;;;;;;5024147;28;20207;-62
2022/08/10 09:06:19;;;;;;;1.53;1.43;;;;;;;;;;5033799;28;20286;-81
2022/08/10 09:08:54;;;;;;;2.50;1.57;;;;;;;;;;5023346;28;20188;-81
2022/08/10 09:11:50;;;;;;;1.40;1.30;;;;;;;;;;5025084;28;20182;-83
2022/08/10 09:14:34;;;;;;;1.40;1.30;;;;;;;;;;5028656;28;20191;-82
2022/08/10 09:17:11;;;;;;;4.20;1.57;;;;;;;;;;5030188;28;20196;-84
2022/08/10 09:19:56;;;;;;;1.60;1.40;;;;;;;;;;5032502;28;21017;-82
2022/08/10 09:22:42;;;;;;;1.87;1.47;;;;;;;;;;5033732;28;20191;-83
2022/08/10 09:25:19;;;;;;;2.50;1.17;;;;;;;;;;5015890;28;20200;-83
2022/08/10 09:27:46;;;;;;;1.63;1.50;;;;;;;;;;5033150;28;20195;-82
2022/08/10 09:30:17;;;;;;;2.37;1.20;;;;;;;;;;5032035;28;20196;-82
2022/08/10 09:33:14;;;;;;;1.93;1.30;;;;;;;;;;5032746;28;20199;-81
2022/08/10 09:36:10;;;;;;;1.60;1.50;;;;;;;;;;5038884;28;20198;-82
2022/08/10 09:38:56;;;;;;;1.60;1.50;;;;;;;;;;5037496;28;20540;-82
2022/08/10 09:41:42;;;;;;;4.40;1.60;;;;;;;;;;5033081;28;20191;-82
2022/08/10 09:44:13;;;;;;;1.50;1.40;;;;;;;;;;5032629;28;20217;-80
2022/08/10 09:46:46;;;;;;;2.67;1.87;;;;;;;;;;5031887;28;20198;-82
2022/08/10 09:49:36;;;;;;;2.13;1.47;;;;;;;;;;5031238;28;20238;-83
2022/08/10 09:52:24;;;;;;;2.03;1.37;;;;;;;;;;5019361;28;20210;-82
2022/08/10 09:55:27;;;;;;;1.60;1.47;;;;;;;;;;5018130;28;20183;-82
2022/08/10 09:58:30;;;;;;;1.87;1.30;;;;;;;;;;5033215;28;20222;-82
2022/08/10 10:01:00;;;;;;;2.70;1.97;;;;;;;;;;5041149;28;20187;-83
2022/08/10 10:03:47;;;;;;;2.87;1.83;;;;;;;;;;5035450;28;20191;-83
2022/08/10 10:06:14;;;;;;;2.23;1.43;;;;;;;;;;5032985;28;20281;-82
2022/08/10 10:09:00;;;;;;;1.40;1.30;;;;;;;;;;5030817;28;20287;-82
2022/08/10 10:11:48;;;;;;;5.57;2.77;;;;;;;;;;5032648;28;20278;-82
2022/08/10 10:14:17;;;;;;;2.33;1.60;;;;;;;;;;5033198;28;20200;-83
2022/08/10 10:17:25;;;;;;;1.83;1.60;;;;;;;;;;5031107;28;20189;-82
2022/08/10 10:20:03;;;;;;;2.03;1.20;;;;;;;;;;5031336;28;20201;-83
2022/08/10 10:22:44;;;;;;;14.53;2.10;;;;;;;;;;5030693;28;20205;-74
2022/08/10 10:25:17;;;;;;;1.97;1.70;;;;;;;;;;5023552;28;20224;-73
2022/08/10 10:28:08;;;;;;;3.90;2.50;;;;;;;;;;5015752;28;20543;-73
2022/08/10 10:30:37;;;;;;;2.73;1.50;;;;;;;;;;5030638;28;20221;-73
2022/08/10 10:33:08;;;;;;;3.67;1.97;;;;;;;;;;5028847;28;20690;-74
2022/08/10 10:35:51;;;;;;;4.13;1.50;;;;;;;;;;5028954;28;20800;-73
2022/08/10 10:38:19;;;;;;;1.67;1.37;;;;;;;;;;5026634;28;20221;-73
2022/08/10 10:41:02;;;;;;;2.40;1.63;;;;;;;;;;5029209;28;20193;-73
2022/08/10 10:43:32;;;;;;;4.27;2.50;;;;;;;;;;5028243;28;20676;-67
2022/08/10 10:46:03;;;;;;;1.93;1.37;;;;;;;;;;5030117;28;20304;-67
2022/08/10 10:48:30;;;;;;;1.90;1.40;;;;;;;;;;5030390;28;20207;-67
2022/08/10 10:50:57;;;;;;;1.20;1.10;;;;;;;;;;5030344;28;20200;-67
2022/08/10 10:53:32;;;;;;;1.40;1.00;;;;;;;;;;5030362;28;20197;-65
2022/08/10 10:56:04;;;;;;;1.73;1.03;;;;;;;;;;5031214;28;20195;-82
2022/08/10 10:59:00;;;;;;;1.27;1.10;;;;;;;;;;5027643;28;20230;-84
2022/08/10 11:01:26;;;;;;;3.80;1.50;;;;;;;;;;5041968;28;20912;-82
2022/08/10 11:03:54;;;;;;;1.10;1.00;;;;;;;;;;5032061;28;20200;-85
2022/08/10 11:06:24;;;;;;;1.47;1.00;;;;;;;;;;5032035;28;20245;-84
2022/08/10 11:09:08;;;;;;;1.87;1.60;;;;;;;;;;5016101;28;20194;-84
2022/08/10 11:11:39;;;;;;;1.93;1.20;;;;;;;;;;5031113;28;20191;-83
2022/08/10 11:14:41;;;;;;;2.63;1.70;;;;;;;;;;5031186;28;20197;-84
2022/08/10 11:17:28;;;;;;;1.97;1.20;;;;;;;;;;5018918;28;20211;-84
2022/08/10 11:20:13;;;;;;;1.33;1.00;;;;;;;;;;5031654;28;20190;-84
2022/08/10 11:23:21;;;;;;;2.03;1.30;;;;;;;;;;5027366;28;20278;-84
2022/08/10 11:25:54;;;;;;;17.50;2.77;;;;;;;;;;4987712;28;20265;-85
2022/08/10 11:28:25;;;;;;;4.70;1.80;;;;;;;;;;5029609;28;20210;-83
2022/08/10 11:31:00;;;;;;;1.87;1.30;;;;;;;;;;5020693;28;20531;-72
2022/08/10 11:33:35;;;;;;;2.93;1.10;;;;;;;;;;5028095;28;20241;-69
2022/08/10 11:36:43;;;;;;;1.17;1.07;;;;;;;;;;5028865;28;20290;-70
2022/08/10 11:39:23;;;;;;;3.27;1.20;;;;;;;;;;5017541;28;20230;-73
2022/08/10 11:42:15;;;;;;;1.40;1.30;;;;;;;;;;5029640;28;20171;-66
2022/08/10 11:45:00;;;;;;;1.90;1.00;;;;;;;;;;5028182;28;20192;-66
2022/08/10 11:47:37;;;;;;;1.07;0.93;;;;;;;;;;5029078;28;20203;-65
2022/08/10 11:50:14;;;;;;;2.83;1.00;;;;;;;;;;5011709;28;20567;-72
2022/08/10 11:53:17;;;;;;;2.00;0.97;;;;;;;;;;5021361;28;20220;-75
2022/08/10 11:55:51;;;;;;;5.83;1.90;;;;;;;;;;5022237;28;20196;-85
2022/08/10 11:59:55;;;;;;;1.53;1.10;;;;;;;;;;5011700;28;20243;-87
2022/08/10 12:01:12;;;;;;;1.97;1.27;;;;;;;;;;5029410;28;20279;-76
2022/08/10 12:03:39;;;;;;;1.30;1.00;;;;;;;;;;5027236;28;20217;-76
2022/08/10 12:06:11;;;;;;;1.70;1.30;;;;;;;;;;5028374;28;20229;-76
2022/08/10 12:08:43;;;;;;;3.47;1.80;;;;;;;;;;5014301;28;20206;-76
2022/08/10 12:11:36;;;;;;;1.17;1.00;;;;;;;;;;5030915;28;20605;-79
2022/08/10 12:14:03;;;;;;;1.53;1.10;;;;;;;;;;5025969;28;20196;-76
2022/08/10 12:16:48;;;;;;;1.43;1.20;;;;;;;;;;5029109;28;20290;-75
2022/08/10 12:19:19;;;;;;;3.10;1.40;;;;;;;;;;5031079;28;20223;-75
2022/08/10 12:21:49;;;;;;;3.50;1.40;;;;;;;;;;5028482;28;20196;-73
2022/08/10 12:24:22;;;;;;;1.10;1.00;;;;;;;;;;5011628;28;20255;-74
2022/08/10 12:27:02;;;;;;;1.63;0.97;;;;;;;;;;5008916;28;20219;-74
2022/08/10 12:29:42;;;;;;;1.27;1.00;;;;;;;;;;5026629;28;20722;-75
2022/08/10 12:32:13;;;;;;;1.30;1.03;;;;;;;;;;5028721;28;20195;-77
2022/08/10 12:34:42;;;;;;;2.00;1.00;;;;;;;;;;5029090;28;20239;-75
2022/08/10 12:37:23;;;;;;;2.17;1.03;;;;;;;;;;5022532;28;20202;-74
2022/08/10 12:39:52;;;;;;;2.87;1.13;;;;;;;;;;5026393;28;20215;-75
2022/08/10 12:43:04;;;;;;;1.57;1.10;;;;;;;;;;5020597;28;20630;-76
2022/08/10 12:46:03;;;;;;;1.33;1.10;;;;;;;;;;5024157;28;20189;-78
2022/08/10 12:48:51;;;;;;;1.33;0.80;;;;;;;;;;5031632;28;20195;-83
2022/08/10 12:51:22;;;;;;;1.43;0.80;;;;;;;;;;5031545;28;20285;-70
2022/08/10 12:53:49;;;;;;;2.80;0.90;;;;;;;;;;5037555;28;20186;-69
2022/08/10 12:56:25;;;;;;;1.23;0.97;;;;;;;;;;5030862;28;20280;-71
2022/08/10 12:58:52;;;;;;;1.00;0.90;;;;;;;;;;5025194;28;20225;-70
2022/08/10 13:01:27;;;;;;;0.97;0.80;;;;;;;;;;5026747;28;20289;-71
2022/08/10 13:04:16;;;;;;;2.37;0.93;;;;;;;;;;5030168;28;20313;-70
2022/08/10 13:06:49;;;;;;;1.20;0.90;;;;;;;;;;5044713;28;20825;-70
2022/08/10 13:09:34;;;;;;;2.73;1.10;;;;;;;;;;5029534;28;20185;-74
2022/08/10 13:12:20;;;;;;;1.90;0.90;;;;;;;;;;5029751;28;20187;-73
2022/08/10 13:15:11;;;;;;;1.40;0.67;;;;;;;;;;5031112;28;20240;-71
2022/08/10 13:18:00;;;;;;;0.90;0.73;;;;;;;;;;5007701;28;20198;-71
2022/08/10 13:20:27;;;;;;;1.50;0.80;;;;;;;;;;5026520;28;20245;-72
2022/08/10 13:22:56;;;;;;;2.47;0.97;;;;;;;;;;5024946;28;20243;-73
2022/08/10 13:25:34;;;;;;;1.23;1.10;;;;;;;;;;5026479;28;20194;-71
2022/08/10 13:28:20;;;;;;;1.57;1.00;;;;;;;;;;4991899;28;20279;-71
2022/08/10 13:31:06;;;;;;;3.30;1.10;;;;;;;;;;5043351;28;20245;-71
2022/08/10 13:33:39;;;;;;;2.03;1.10;;;;;;;;;;5026845;28;20212;-71
2022/08/10 13:36:30;;;;;;;2.23;0.90;;;;;;;;;;5038166;28;20280;-74
2022/08/10 13:38:58;;;;;;;2.27;1.37;;;;;;;;;;5006459;28;20299;-74
2022/08/10 13:41:29;;;;;;;1.43;1.10;;;;;;;;;;5009327;28;20214;-74
2022/08/10 13:43:57;;;;;;;1.13;1.03;;;;;;;;;;5043354;28;20231;-72
2022/08/10 13:46:24;;;;;;;3.50;1.00;;;;;;;;;;5012838;28;20191;-81
2022/08/10 13:48:54;;;;;;;1.90;0.97;;;;;;;;;;5019310;28;20192;-69
2022/08/10 13:51:22;;;;;;;2.30;1.07;;;;;;;;;;5051600;28;20194;-76
2022/08/10 13:54:09;;;;;;;1.10;1.00;;;;;;;;;;5037677;28;20202;-78
2022/08/10 13:56:38;;;;;;;1.00;0.90;;;;;;;;;;5051841;28;20298;-78
2022/08/10 13:59:07;;;;;;;1.20;1.00;;;;;;;;;;5034031;28;20707;-78
2022/08/10 14:01:37;;;;;;;2.87;1.93;;;;;;;;;;5019615;28;20187;-76
2022/08/10 14:04:06;;;;;;;2.87;1.40;;;;;;;;;;5041682;28;20194;-76
2022/08/10 14:06:33;;;;;;;2.97;1.87;;;;;;;;;;5056651;28;20655;-78
2022/08/10 14:09:08;;;;;;;2.67;1.30;;;;;;;;;;5052024;28;20191;-79
2022/08/10 14:11:36;;;;;;;5.37;1.00;;;;;;;;;;5052351;28;20614;-77
2022/08/10 14:14:03;;;;;;;1.60;0.90;;;;;;;;;;5051861;28;20209;-76
2022/08/10 14:16:30;;;;;;;3.83;1.10;;;;;;;;;;5034446;28;20218;-78
2022/08/10 14:19:00;;;;;;;2.13;0.90;;;;;;;;;;5034603;28;20258;-76
2022/08/10 14:21:28;;;;;;;1.83;1.37;;;;;;;;;;5052230;28;20680;-79
2022/08/10 14:23:55;;;;;;;1.37;1.00;;;;;;;;;;5035061;28;20941;-80
2022/08/10 14:26:39;;;;;;;4.33;1.33;;;;;;;;;;5027038;28;20226;-82
2022/08/10 14:29:08;;;;;;;2.67;1.17;;;;;;;;;;5033591;28;20670;-81
2022/08/10 14:31:54;;;;;;;1.73;1.40;;;;;;;;;;5037240;28;20170;-78
2022/08/10 14:34:32;;;;;;;2.43;1.30;;;;;;;;;;5034918;28;20218;-79
2022/08/10 14:37:21;;;;;;;4.07;1.63;;;;;;;;;;5014633;28;20190;-77
2022/08/10 14:39:50;;;;;;;1.20;0.93;;;;;;;;;;5050755;28;20206;-71
2022/08/10 14:42:18;;;;;;;4.27;1.60;;;;;;;;;;5051329;28;20205;-79
2022/08/10 14:44:54;;;;;;;2.50;1.07;;;;;;;;;;5035735;28;20222;-78
2022/08/10 14:47:22;;;;;;;3.27;1.30;;;;;;;;;;5034068;28;20230;-78
2022/08/10 14:50:09;;;;;;;1.70;1.20;;;;;;;;;;5036441;28;20638;-80
2022/08/10 14:52:39;;;;;;;3.33;1.50;;;;;;;;;;5034261;28;20273;-80
2022/08/10 14:55:11;;;;;;;3.07;1.50;;;;;;;;;;5051572;28;20199;-80
2022/08/10 14:57:46;;;;;;;6.43;1.27;;;;;;;;;;5035364;28;20194;-79
2022/08/10 15:00:36;;;;;;;2.63;0.97;;;;;;;;;;5051340;28;20214;-83
2022/08/10 15:03:08;;;;;;;1.13;0.90;;;;;;;;;;5039467;28;20246;-83
2022/08/10 15:05:56;;;;;;;1.67;1.10;;;;;;;;;;5022306;28;20234;-80
2022/08/10 15:08:27;;;;;;;2.47;1.30;;;;;;;;;;5029909;28;20190;-82
2022/08/10 15:11:02;;;;;;;3.90;1.07;;;;;;;;;;5022771;28;20252;-80
2022/08/10 15:13:30;;;;;;;3.43;1.23;;;;;;;;;;5050483;28;20676;-75
2022/08/10 15:16:01;;;;;;;6.00;1.30;;;;;;;;;;5024532;28;20674;-80
2022/08/10 15:18:39;;;;;;;3.83;1.50;;;;;;;;;;5016656;28;20873;-77
2022/08/10 15:21:05;;;;;;;2.10;1.20;;;;;;;;;;5032754;28;20228;-74
2022/08/10 15:23:50;;;;;;;2.20;1.10;;;;;;;;;;5032876;28;20281;-66
2022/08/10 15:26:34;;;;;;;1.73;1.10;;;;;;;;;;5031253;28;20178;-71
2022/08/10 15:29:03;;;;;;;2.30;1.00;;;;;;;;;;4991982;28;20302;-77
2022/08/10 15:37:21;;;;;;;2.77;1.20;;;;;;;;;;5017660;28;20288;-77
2022/08/10 15:40:14;;;;;;;2.27;1.00;;;;;;;;;;5019405;28;20226;-76
2022/08/10 15:43:04;;;;;;;1.27;1.10;;;;;;;;;;5049625;28;20356;-76